createdAt,value
2019-01-21T00:01:32.191Z,-1.71
2019-01-21T00:04:34.204Z,-1.60
2019-01-21T00:07:36.115Z,-1.42
2019-01-21T00:10:38.349Z,-1.39
2019-01-21T00:13:40.349Z,-1.27
2019-01-21T00:16:42.299Z,-1.20
2019-01-21T00:19:44.185Z,-1.12
2019-01-21T00:22:46.146Z,-1.09
2019-01-21T00:25:48.168Z,-1.01
2019-01-21T00:28:50.100Z,-1.00
2019-01-21T00:31:52.431Z,-0.93
2019-01-21T00:34:54.359Z,-0.85
2019-01-21T00:37:56.424Z,-0.82
2019-01-21T00:40:58.335Z,-0.82
2019-01-21T00:44:00.304Z,-0.76
2019-01-21T00:47:02.260Z,-0.72
2019-01-21T00:50:12.937Z,-0.63
2019-01-21T00:53:14.889Z,-0.59
2019-01-21T00:56:16.855Z,-0.58
2019-01-21T00:59:18.898Z,-0.56
2019-01-21T01:02:20.798Z,-0.49
2019-01-21T01:05:23.580Z,-0.49
2019-01-21T01:08:25.510Z,-0.46
2019-01-21T01:11:27.953Z,-0.43
2019-01-21T01:14:29.797Z,-0.45
2019-01-21T01:17:37.153Z,-0.40
2019-01-21T01:20:36.833Z,-0.41
2019-01-21T01:23:38.785Z,-0.38
2019-01-21T01:26:40.748Z,-0.32
2019-01-21T01:29:42.710Z,-0.19
2019-01-21T01:32:44.619Z,-0.19
2019-01-21T01:35:46.582Z,-0.16
2019-01-21T01:38:48.490Z,-0.14
2019-01-21T01:41:50.434Z,-0.13
2019-01-21T01:44:52.356Z,-0.13
2019-01-21T01:47:57.854Z,-0.11
2019-01-21T01:50:59.809Z,-0.07
2019-01-21T01:54:02.393Z,-0.04
2019-01-21T01:57:04.393Z,-0.10
2019-01-21T02:00:10.147Z,-0.12
2019-01-21T02:03:12.103Z,-0.11
2019-01-21T02:06:14.167Z,-0.13
2019-01-21T02:09:16.106Z,-0.07
2019-01-21T02:12:18.139Z,-0.03
2019-01-21T02:15:20.623Z,-0.02
2019-01-21T02:18:22.529Z,0.03
2019-01-21T02:21:26.825Z,-0.01
2019-01-21T02:24:31.654Z,0.03
2019-01-21T02:27:37.213Z,0.08
2019-01-21T02:31:02.521Z,0.07
2019-01-21T02:34:17.082Z,0.12
2019-01-21T02:37:34.977Z,0.03
2019-01-21T02:40:40.540Z,-0.01
2019-01-21T02:43:48.882Z,0.01
2019-01-21T02:47:12.475Z,0.03
2019-01-21T02:50:21.090Z,0.12
2019-01-21T02:53:29.339Z,0.08
2019-01-21T02:56:41.059Z,0.09
2019-01-21T02:59:55.742Z,0.15
2019-01-21T03:03:04.379Z,0.15
2019-01-21T03:06:15.570Z,0.09
2019-01-21T03:09:36.590Z,0.09
2019-01-21T03:12:45.039Z,0.07
2019-01-21T03:15:53.374Z,0.03
2019-01-21T03:19:04.710Z,0.07
2019-01-21T03:22:28.478Z,0.09
2019-01-21T03:25:43.949Z,0.13
2019-01-21T03:28:50.899Z,0.07
2019-01-21T03:32:29.946Z,0.07
2019-01-21T03:35:59.507Z,0.08
2019-01-21T03:39:17.132Z,0.09
2019-01-21T03:42:37.260Z,0.14
2019-01-21T03:46:01.092Z,0.19
2019-01-21T03:49:09.415Z,0.26
2019-01-21T03:52:30.302Z,0.29
2019-01-21T03:55:32.491Z,0.29
2019-01-21T03:59:06.995Z,0.33
2019-01-21T04:02:31.297Z,0.40
2019-01-21T04:05:36.896Z,0.31
2019-01-21T04:08:42.467Z,0.29
2019-01-21T04:12:07.952Z,0.31
2019-01-21T04:15:16.233Z,0.30
2019-01-21T04:18:47.749Z,0.18
2019-01-21T04:21:59.090Z,0.24
2019-01-21T04:25:27.583Z,0.17
2019-01-21T04:28:44.091Z,0.18
2019-01-21T04:31:52.612Z,0.12
2019-01-21T04:35:13.434Z,0.09
2019-01-21T04:38:24.974Z,0.13
2019-01-21T04:41:42.744Z,0.21
2019-01-21T04:45:03.437Z,0.14
2019-01-21T04:48:17.973Z,0.07
2019-01-21T04:51:23.582Z,0.01
2019-01-21T04:54:49.037Z,0.09
2019-01-21T04:58:12.776Z,0.20
2019-01-21T05:01:33.735Z,0.27
2019-01-21T05:04:59.180Z,0.28
2019-01-21T05:08:36.631Z,0.27
2019-01-21T05:11:53.930Z,0.17
2019-01-21T05:15:14.615Z,0.08
2019-01-21T05:18:49.161Z,0.05
2019-01-21T05:22:09.190Z,0.01
2019-01-21T05:25:26.633Z,-0.10
2019-01-21T05:28:34.947Z,-0.14
2019-01-21T05:31:55.920Z,-0.19
2019-01-21T05:35:18.178Z,-0.15
2019-01-21T05:38:23.742Z,-0.15
2019-01-21T05:41:40.821Z,-0.22
2019-01-21T05:45:01.485Z,-0.14
2019-01-21T05:48:07.369Z,-0.16
2019-01-21T05:51:46.590Z,-0.14
2019-01-21T05:55:02.466Z,-0.05
2019-01-21T05:58:13.956Z,-0.19
2019-01-21T06:01:34.564Z,-0.19
2019-01-21T06:04:51.951Z,-0.19
2019-01-21T06:08:06.512Z,-0.21
2019-01-21T06:11:14.721Z,-0.08
2019-01-21T06:14:26.241Z,0.04
2019-01-21T06:17:43.950Z,0.10
2019-01-21T06:21:16.395Z,0.16
2019-01-21T06:24:24.672Z,0.04
2019-01-21T06:27:39.325Z,-0.07
2019-01-21T06:30:59.765Z,-0.06
2019-01-21T06:34:29.564Z,-0.03
2019-01-21T06:37:37.932Z,0.00
2019-01-21T06:40:46.452Z,-0.16
2019-01-21T06:43:57.986Z,-0.28
2019-01-21T06:47:36.156Z,-0.18
2019-01-21T06:51:06.563Z,-0.15
2019-01-21T06:54:21.177Z,-0.38
2019-01-21T06:57:32.870Z,-0.33
2019-01-21T07:00:50.673Z,-0.29
2019-01-21T07:04:02.270Z,-0.22
2019-01-21T07:07:23.148Z,-0.15
2019-01-21T07:10:34.602Z,-0.11
2019-01-21T07:13:56.340Z,-0.24
2019-01-21T07:17:23.892Z,-0.21
2019-01-21T07:20:49.605Z,-0.22
2019-01-21T07:24:27.154Z,-0.21
2019-01-21T07:27:41.868Z,-0.25
2019-01-21T07:30:56.472Z,-0.34
2019-01-21T07:34:11.082Z,-0.41
2019-01-21T07:37:19.635Z,-0.39
2019-01-21T07:40:46.786Z,-0.28
2019-01-21T07:44:01.420Z,-0.11
2019-01-21T07:47:26.544Z,-0.08
2019-01-21T07:50:38.531Z,-0.11
2019-01-21T07:53:59.435Z,-0.03
2019-01-21T07:57:34.318Z,0.14
2019-01-21T08:00:51.898Z,0.11
2019-01-21T08:04:16.133Z,0.13
2019-01-21T08:07:24.559Z,0.17
2019-01-21T08:10:42.277Z,-0.01
2019-01-21T08:14:00.177Z,0.04
2019-01-21T08:17:14.756Z,0.17
2019-01-21T08:20:41.721Z,0.25
2019-01-21T08:23:50.396Z,0.31
2019-01-21T08:26:58.673Z,0.05
2019-01-21T08:30:07.314Z,0.10
2019-01-21T08:33:41.979Z,0.19
2019-01-21T08:36:53.398Z,0.21
2019-01-21T08:40:04.907Z,0.15
2019-01-21T08:43:13.293Z,0.32
2019-01-21T08:46:40.111Z,0.40
2019-01-21T08:49:57.787Z,0.49
2019-01-21T08:53:18.433Z,0.46
2019-01-21T08:56:45.433Z,0.53
2019-01-21T09:00:06.110Z,0.65
2019-01-21T09:03:28.348Z,0.74
2019-01-21T09:06:42.727Z,0.69
2019-01-21T09:09:54.219Z,0.79
2019-01-21T09:13:08.945Z,0.85
2019-01-21T09:16:35.767Z,0.93
2019-01-21T09:19:56.353Z,0.95
2019-01-21T09:23:07.785Z,0.94
2019-01-21T09:26:28.622Z,0.98
2019-01-21T09:30:01.231Z,1.06
2019-01-21T09:33:12.575Z,0.89
2019-01-21T09:36:32.942Z,0.83
2019-01-21T09:39:44.620Z,0.87
2019-01-21T09:43:05.219Z,0.84
2019-01-21T09:46:10.873Z,1.04
2019-01-21T09:49:12.355Z,1.18
2019-01-21T09:52:16.444Z,1.27
2019-01-21T09:55:20.890Z,1.34
2019-01-21T09:58:23.670Z,1.39
2019-01-21T10:01:26.093Z,1.58
2019-01-21T10:04:37.317Z,1.67
2019-01-21T10:07:48.875Z,1.89
2019-01-21T10:11:03.614Z,1.89
2019-01-21T10:14:24.965Z,1.95
2019-01-21T10:17:36.439Z,1.85
2019-01-21T10:20:42.023Z,1.65
2019-01-21T10:23:50.175Z,1.50
2019-01-21T10:26:58.908Z,1.53
2019-01-21T10:30:13.493Z,1.68
2019-01-21T10:33:31.110Z,1.69
2019-01-21T10:36:56.112Z,1.91
2019-01-21T10:40:08.103Z,1.63
2019-01-21T10:43:28.844Z,1.65
2019-01-21T10:46:37.133Z,1.94
2019-01-21T10:49:59.527Z,2.15
2019-01-21T10:53:20.476Z,2.01
2019-01-21T10:56:37.491Z,1.96
2019-01-21T10:59:55.127Z,1.85
2019-01-21T11:03:17.306Z,1.88
2019-01-21T11:06:29.161Z,1.86
2019-01-21T11:09:34.679Z,1.94
2019-01-21T11:13:07.723Z,2.03
2019-01-21T11:16:16.017Z,2.23
2019-01-21T11:19:45.068Z,2.27
2019-01-21T11:22:59.511Z,1.98
2019-01-21T11:26:19.887Z,1.93
2019-01-21T11:29:40.372Z,1.89
2019-01-21T11:32:51.552Z,1.73
2019-01-21T11:36:08.982Z,1.54
2019-01-21T11:39:37.185Z,1.54
2019-01-21T11:42:45.268Z,1.66
2019-01-21T11:46:18.430Z,1.97
2019-01-21T11:49:38.627Z,2.17
2019-01-21T11:52:50.398Z,2.07
2019-01-21T11:56:05.033Z,2.27
2019-01-21T11:59:10.669Z,2.22
2019-01-21T12:02:16.225Z,1.82
2019-01-21T12:05:24.940Z,1.67
2019-01-21T12:08:33.463Z,1.90
2019-01-21T12:11:41.973Z,2.11
2019-01-21T12:14:56.665Z,2.14
2019-01-21T12:18:02.274Z,1.86
2019-01-21T12:21:22.632Z,1.29
2019-01-21T12:24:25.926Z,1.13
2019-01-21T12:27:37.223Z,1.08
2019-01-21T12:30:55.261Z,1.11
2019-01-21T12:34:03.533Z,1.03
2019-01-21T12:37:20.910Z,0.70
2019-01-21T12:40:44.611Z,0.67
2019-01-21T12:43:50.281Z,0.63
2019-01-21T12:47:07.978Z,0.62
2019-01-21T12:50:42.293Z,0.51
2019-01-21T12:53:50.595Z,0.28
2019-01-21T12:57:12.571Z,0.28
2019-01-21T13:00:23.707Z,0.43
2019-01-21T13:03:32.498Z,0.23
2019-01-21T13:06:49.592Z,0.18
2019-01-21T13:10:14.383Z,0.16
2019-01-21T13:13:28.976Z,0.24
2019-01-21T13:16:34.527Z,0.34
2019-01-21T13:19:52.106Z,0.36
2019-01-21T13:23:01.189Z,0.35
2019-01-21T13:26:19.033Z,0.20
2019-01-21T13:29:27.775Z,0.20
2019-01-21T13:32:48.141Z,0.22
2019-01-21T13:36:08.630Z,0.17
2019-01-21T13:39:30.916Z,-0.02
2019-01-21T13:42:39.308Z,-0.15
2019-01-21T13:46:00.235Z,-0.35
2019-01-21T13:49:21.104Z,-0.47
2019-01-21T13:52:46.587Z,-0.37
2019-01-21T13:55:52.338Z,-0.36
2019-01-21T13:59:16.009Z,-0.35
2019-01-21T14:02:27.857Z,-0.23
2019-01-21T14:05:36.434Z,-0.26
2019-01-21T14:08:44.775Z,-0.24
2019-01-21T14:12:11.685Z,-0.35
2019-01-21T14:15:32.471Z,-0.31
2019-01-21T14:18:50.125Z,-0.41
2019-01-21T14:21:58.631Z,-0.52
2019-01-21T14:25:33.230Z,-0.57
2019-01-21T14:28:41.657Z,-0.60
2019-01-21T14:31:56.138Z,-0.77
2019-01-21T14:35:21.019Z,-0.73
2019-01-21T14:38:29.608Z,-0.72
2019-01-21T14:42:01.334Z,-0.82
2019-01-21T14:45:23.487Z,-0.77
2019-01-21T14:48:38.218Z,-0.82
2019-01-21T14:51:58.896Z,-0.78
2019-01-21T14:55:19.197Z,-0.77
2019-01-21T14:58:44.494Z,-0.81
2019-01-21T15:02:17.383Z,-0.84
2019-01-21T15:05:47.422Z,-0.89
2019-01-21T15:08:53.085Z,-0.98
2019-01-21T15:12:11.086Z,-0.99
2019-01-21T15:15:44.333Z,-1.00
2019-01-21T15:18:53.106Z,-1.07
2019-01-21T15:22:13.943Z,-1.17
2019-01-21T15:25:28.867Z,-1.15
2019-01-21T15:28:40.795Z,-1.16
2019-01-21T15:31:49.550Z,-1.21
2019-01-21T15:35:09.727Z,-1.28
2019-01-21T15:38:24.683Z,-1.34
2019-01-21T15:41:36.105Z,-1.47
2019-01-21T15:44:50.637Z,-1.54
2019-01-21T15:48:20.789Z,-1.64
2019-01-21T15:51:29.113Z,-1.88
2019-01-21T15:54:51.479Z,-2.01
2019-01-21T15:58:06.191Z,-2.05
2019-01-21T16:01:15.197Z,-2.13
2019-01-21T16:04:20.863Z,-2.23
2019-01-21T16:07:26.482Z,-2.27
2019-01-21T16:10:50.841Z,-2.30
2019-01-21T16:13:53.632Z,-2.37
2019-01-21T16:17:05.253Z,-2.41
2019-01-21T16:20:10.883Z,-2.45
2019-01-21T16:23:34.832Z,-2.49
2019-01-21T16:26:40.430Z,-2.50
2019-01-21T16:29:52.000Z,-2.59
2019-01-21T16:33:22.031Z,-2.61
2019-01-21T16:36:27.636Z,-2.71
2019-01-21T16:39:36.177Z,-2.82
2019-01-21T16:42:38.307Z,-2.86
2019-01-21T16:45:40.353Z,-2.92
2019-01-21T16:48:42.496Z,-2.95
2019-01-21T16:51:44.367Z,-2.95
2019-01-21T16:54:46.314Z,-2.89
2019-01-21T16:57:48.260Z,-2.78
2019-01-21T17:00:50.342Z,-2.79
2019-01-21T17:03:52.430Z,-2.82
2019-01-21T17:06:54.488Z,-2.82
2019-01-21T17:09:56.385Z,-2.84
2019-01-21T17:12:58.356Z,-2.95
2019-01-21T17:16:03.527Z,-2.96
2019-01-21T17:19:06.001Z,-2.99
2019-01-21T17:22:07.933Z,-3.02
2019-01-21T17:25:11.262Z,-3.09
2019-01-21T17:28:13.253Z,-3.09
2019-01-21T17:31:15.205Z,-3.13
2019-01-21T17:34:17.201Z,-3.09
2019-01-21T17:37:19.221Z,-3.17
2019-01-21T17:40:21.241Z,-3.21
2019-01-21T17:43:23.187Z,-3.25
2019-01-21T17:46:25.103Z,-3.25
2019-01-21T17:49:29.057Z,-3.26
2019-01-21T17:52:35.941Z,-3.33
2019-01-21T17:55:37.975Z,-3.37
2019-01-21T17:58:39.895Z,-3.45
2019-01-21T18:01:41.896Z,-3.46
2019-01-21T18:04:43.902Z,-3.51
2019-01-21T18:07:45.869Z,-3.56
2019-01-21T18:10:47.820Z,-3.61
2019-01-21T18:13:50.225Z,-3.69
2019-01-21T18:16:54.042Z,-3.69
2019-01-21T18:19:57.262Z,-3.68
2019-01-21T18:22:59.375Z,-3.74
2019-01-21T18:26:03.917Z,-3.82
2019-01-21T18:29:07.825Z,-3.85
2019-01-21T18:32:09.765Z,-3.85
2019-01-21T18:35:13.521Z,-3.88
2019-01-21T18:38:15.467Z,-3.88
2019-01-21T18:41:17.840Z,-3.90
2019-01-21T18:44:21.696Z,-3.93
2019-01-21T18:47:23.668Z,-4.10
2019-01-21T18:50:38.391Z,-4.25
2019-01-21T18:53:41.581Z,-4.30
2019-01-21T18:56:43.578Z,-4.44
2019-01-21T18:59:45.470Z,-4.52
2019-01-21T19:02:47.469Z,-4.56
2019-01-21T19:05:52.566Z,-4.62
2019-01-21T19:08:54.985Z,-4.67
2019-01-21T19:11:58.052Z,-4.67
2019-01-21T19:15:00.015Z,-4.71
2019-01-21T19:18:02.078Z,-4.68
2019-01-21T19:21:03.983Z,-4.62
2019-01-21T19:24:06.134Z,-4.56
2019-01-21T19:27:10.218Z,-4.52
2019-01-21T19:30:21.458Z,-4.47
2019-01-21T19:33:23.475Z,-4.44
2019-01-21T19:36:25.690Z,-4.52
2019-01-21T19:39:27.615Z,-4.55
2019-01-21T19:42:29.949Z,-4.49
2019-01-21T19:45:31.916Z,-4.64
2019-01-21T19:48:36.951Z,-4.48
2019-01-21T19:51:38.909Z,-4.50
2019-01-21T19:54:40.887Z,-4.51
2019-01-21T19:57:44.958Z,-4.55
2019-01-21T20:00:48.581Z,-4.42
2019-01-21T20:03:57.319Z,-4.37
2019-01-21T20:07:00.271Z,-4.30
2019-01-21T20:10:05.783Z,-4.27
2019-01-21T20:13:09.182Z,-4.23
2019-01-21T20:16:11.139Z,-4.05
2019-01-21T20:19:14.058Z,-3.81
2019-01-21T20:22:18.203Z,-3.86
2019-01-21T20:25:21.690Z,-3.83
2019-01-21T20:28:24.053Z,-3.75
2019-01-21T20:31:28.124Z,-3.61
2019-01-21T20:34:32.168Z,-3.58
2019-01-21T20:37:34.647Z,-3.63
2019-01-21T20:40:36.799Z,-3.63
2019-01-21T20:43:41.643Z,-3.65
2019-01-21T20:46:43.613Z,-3.65
2019-01-21T20:49:47.478Z,-3.35
2019-01-21T20:52:49.838Z,-3.28
2019-01-21T20:55:51.813Z,-3.42
2019-01-21T20:58:58.440Z,-3.42
2019-01-21T21:02:00.364Z,-3.58
2019-01-21T21:05:04.063Z,-3.58
2019-01-21T21:08:06.900Z,-3.58
2019-01-21T21:11:09.133Z,-3.50
2019-01-21T21:14:24.962Z,-3.23
2019-01-21T21:17:29.288Z,-3.14
2019-01-21T21:20:32.340Z,-3.14
2019-01-21T21:23:37.662Z,-3.07
2019-01-21T21:26:39.656Z,-2.98
2019-01-21T21:29:46.762Z,-2.83
2019-01-21T21:32:49.809Z,-2.87
2019-01-21T21:35:53.398Z,-2.97
2019-01-21T21:38:55.729Z,-3.03
2019-01-21T21:41:57.847Z,-3.06
2019-01-21T21:45:00.166Z,-2.89
2019-01-21T21:48:02.091Z,-3.03
2019-01-21T21:51:03.995Z,-2.82
2019-01-21T21:54:06.568Z,-2.62
2019-01-21T21:57:08.508Z,-2.59
2019-01-21T22:00:19.000Z,-2.64
2019-01-21T22:03:20.902Z,-2.74
2019-01-21T22:06:22.841Z,-2.76
2019-01-21T22:09:24.757Z,-2.92
2019-01-21T22:12:26.880Z,-2.83
2019-01-21T22:15:28.915Z,-2.73
2019-01-21T22:18:30.890Z,-2.81
2019-01-21T22:21:33.257Z,-2.82
2019-01-21T22:24:35.194Z,-2.82
2019-01-21T22:27:37.075Z,-2.90
2019-01-21T22:30:39.110Z,-3.06
2019-01-21T22:33:41.017Z,-3.15
2019-01-21T22:36:42.992Z,-3.37
2019-01-21T22:39:44.905Z,-3.37
2019-01-21T22:42:46.856Z,-3.41
2019-01-21T22:45:49.998Z,-3.38
2019-01-21T22:48:51.975Z,-3.33
2019-01-21T22:51:54.266Z,-3.38
2019-01-21T22:54:56.154Z,-3.34
2019-01-21T22:57:58.186Z,-3.48
2019-01-21T23:01:04.131Z,-3.46
2019-01-21T23:04:06.226Z,-3.03
2019-01-21T23:07:08.105Z,-3.03
2019-01-21T23:10:10.262Z,-2.88
2019-01-21T23:13:13.425Z,-2.92
2019-01-21T23:16:15.692Z,-3.04
2019-01-21T23:19:17.653Z,-3.05
2019-01-21T23:22:19.712Z,-3.07
2019-01-21T23:25:21.646Z,-2.87
2019-01-21T23:28:23.585Z,-2.84
2019-01-21T23:31:25.466Z,-2.65
2019-01-21T23:34:27.420Z,-2.53
2019-01-21T23:37:29.300Z,-2.69
2019-01-21T23:40:31.472Z,-2.87
2019-01-21T23:43:33.400Z,-3.00
2019-01-21T23:46:35.897Z,-3.01
2019-01-21T23:49:37.809Z,-3.00
2019-01-21T23:52:39.783Z,-2.82
2019-01-21T23:55:41.699Z,-2.67
2019-01-21T23:58:43.651Z,-2.64
